CheckWX is a tool to help pilots better visualize weather data.  It is not intended as a substitute for an official pre-flight weather briefing.

20:14:10 UTC

KPKV METAR
Calhoun County Airport
Port Lavaca, Texas, USA
Current

19 mins ago

KPKV 231955Z AUTO 15015G20KT 10SM SCT021 BKN026 OVC046 26/21 A2997 RMK AO2 T02620209
Observed
Apr-23 @ 19:55 UTC
Wind
  • 150° at 15 KTS
  • Gusting to 20 KTS
Visibility
10 SM
Flight Rules
MVFR
Cloud Levels
  • Scattered at 2,100' AGL
  • Broken at 2,600' AGL
  • Overcast at 4,600' AGL
Temperature
26°C / 79°F
Dewpoint
21°C / 70°F
Humidity
74%
Altimeter
29.97" Hg
Pressure
1014.92 hPa
Previous

39 mins ago

KPKV 231935Z AUTO 14016G20KT 10SM BKN023 BKN035 OVC043 26/21 A2998 RMK AO2 T02550207
Observed
Apr-23 @ 19:35 UTC
Wind
  • 140° at 16 KTS
  • Gusting to 20 KTS
Visibility
10 SM
Flight Rules
MVFR
Cloud Levels
  • Broken at 2,300' AGL
  • Broken at 3,500' AGL
  • Overcast at 4,300' AGL
Temperature
26°C / 79°F
Dewpoint
21°C / 70°F
Humidity
74%
Altimeter
29.98" Hg
Pressure
1015.22 hPa
Previous

59 mins ago

KPKV 231915Z AUTO 14016G26KT 10SM SCT019 SCT027 BKN038 26/21 A2998 RMK AO2 T02580210
Observed
Apr-23 @ 19:15 UTC
Wind
  • 140° at 16 KTS
  • Gusting to 26 KTS
Visibility
10 SM
Flight Rules
VFR
Cloud Levels
  • Scattered at 1,900' AGL
  • Scattered at 2,700' AGL
  • Broken at 3,800' AGL
Temperature
26°C / 79°F
Dewpoint
21°C / 70°F
Humidity
74%
Altimeter
29.98" Hg
Pressure
1015.22 hPa